Time;durP1;ratioP1;P1;durP2;ratioP2;P2;SDS_P1;SDS_P2;PMS_P1;PMS_P2;Temp;Humidity;BMP_temperature;BMP_pressure;BME280_temperature;BME280_humidity;BME280_pressure;Samples;Min_cycle;Max_cycle;Signal;HPM_P1;HPM_P2
2024/01/16 00:01:45;;;;;;;6.50;4.00;;;1.40;99.90;;;;;;4985476;28;20212;-84
2024/01/16 00:04:11;;;;;;;5.80;4.17;;;1.00;99.90;;;;;;4986035;28;20278;-83
2024/01/16 00:06:42;;;;;;;4.90;4.20;;;1.30;99.90;;;;;;4990621;28;20249;-84
2024/01/16 00:09:09;;;;;;;3.95;3.53;;;1.50;99.90;;;;;;4993780;28;20184;-85
2024/01/16 00:11:42;;;;;;;5.15;3.63;;;2.00;99.90;;;;;;4982847;28;20191;-84
2024/01/16 00:14:08;;;;;;;4.70;3.55;;;1.50;99.90;;;;;;4991533;28;20188;-84
2024/01/16 00:16:41;;;;;;;4.47;4.03;;;1.30;99.90;;;;;;4988387;28;20200;-83
2024/01/16 00:19:06;;;;;;;4.20;3.58;;;1.70;99.90;;;;;;4991659;28;20677;-84
2024/01/16 00:21:32;;;;;;;4.80;3.70;;;1.40;99.90;;;;;;4990052;28;20185;-82
2024/01/16 00:23:57;;;;;;;4.63;4.10;;;1.30;99.90;;;;;;4989916;28;20191;-85
2024/01/16 00:26:23;;;;;;;5.17;4.40;;;0.80;99.90;;;;;;4990864;28;20826;-83
2024/01/16 00:28:48;;;;;;;4.10;3.70;;;1.50;99.90;;;;;;4992187;28;20295;-83
2024/01/16 00:31:14;;;;;;;4.13;3.43;;;1.30;99.90;;;;;;4992857;28;20192;-83
2024/01/16 00:33:40;;;;;;;4.40;3.50;;;1.40;99.90;;;;;;4995713;28;20188;-83
2024/01/16 00:36:06;;;;;;;5.60;4.07;;;1.80;99.90;;;;;;4997680;28;20458;-83
2024/01/16 00:38:35;;;;;;;6.43;4.50;;;1.20;99.90;;;;;;4984352;28;20200;-83
2024/01/16 00:41:00;;;;;;;5.55;3.95;;;1.30;99.90;;;;;;4981607;28;20232;-84
2024/01/16 00:43:26;;;;;;;4.20;3.80;;;0.80;99.90;;;;;;4985709;28;20228;-84
2024/01/16 00:45:52;;;;;;;6.60;4.37;;;1.80;99.90;;;;;;4988659;28;20781;-84
2024/01/16 00:48:19;;;;;;;4.63;3.17;;;0.70;99.90;;;;;;4990486;28;20188;-84
2024/01/16 00:50:46;;;;;;;4.00;3.33;;;1.40;99.90;;;;;;4989326;28;20184;-84
2024/01/16 00:53:11;;;;;;;5.32;3.70;;;1.30;99.90;;;;;;4991279;28;20192;-83
2024/01/16 00:55:37;;;;;;;6.30;3.90;;;1.20;99.90;;;;;;4981367;28;20214;-84
2024/01/16 00:58:03;;;;;;;5.00;3.57;;;1.30;99.90;;;;;;4985770;28;20242;-84
2024/01/16 01:00:30;;;;;;;4.60;3.67;;;1.30;99.90;;;;;;4989794;28;20189;-84
2024/01/16 01:02:56;;;;;;;4.70;3.75;;;1.40;99.90;;;;;;4988796;28;20259;-83
2024/01/16 01:05:27;;;;;;;3.60;3.20;;;0.80;99.90;;;;;;4988912;28;20213;-83
2024/01/16 01:07:54;;;;;;;6.47;3.67;;;1.20;99.90;;;;;;4988524;28;20448;-84
2024/01/16 01:10:20;;;;;;;3.78;3.42;;;1.30;99.90;;;;;;4983281;28;20184;-83
2024/01/16 01:12:45;;;;;;;4.40;3.40;;;0.70;99.90;;;;;;4988816;28;20227;-84
2024/01/16 01:15:11;;;;;;;4.93;3.70;;;1.20;99.90;;;;;;4991708;28;20208;-85
2024/01/16 01:17:37;;;;;;;6.10;3.95;;;1.00;99.90;;;;;;4990139;28;20184;-84
2024/01/16 01:20:03;;;;;;;4.83;4.17;;;1.50;99.90;;;;;;4987267;28;20223;-84
2024/01/16 01:22:28;;;;;;;4.73;3.70;;;1.40;99.90;;;;;;4990317;28;20621;-84
2024/01/16 01:24:54;;;;;;;5.03;3.20;;;1.70;99.90;;;;;;4989966;28;20495;-84
2024/01/16 01:27:20;;;;;;;5.63;4.00;;;1.40;99.90;;;;;;4991319;28;20220;-84
2024/01/16 01:29:46;;;;;;;6.73;3.23;;;1.60;99.90;;;;;;4991126;28;20687;-84
2024/01/16 01:32:11;;;;;;;7.50;4.30;;;1.60;99.90;;;;;;4987428;28;20466;-84
2024/01/16 01:34:38;;;;;;;4.17;3.77;;;1.30;99.90;;;;;;4974268;28;20599;-84
2024/01/16 01:37:03;;;;;;;5.07;4.10;;;1.70;99.90;;;;;;4991430;28;20211;-83
2024/01/16 01:39:30;;;;;;;5.60;3.70;;;1.10;99.90;;;;;;4992564;28;20198;-83
2024/01/16 01:41:55;;;;;;;6.15;4.15;;;1.30;99.90;;;;;;4992072;28;20267;-83
2024/01/16 01:44:21;;;;;;;6.03;4.70;;;1.50;99.90;;;;;;4987480;28;20263;-83
2024/01/16 01:46:47;;;;;;;4.70;3.50;;;0.90;99.90;;;;;;4982786;28;20191;-83
2024/01/16 01:49:15;;;;;;;4.80;3.63;;;1.30;99.90;;;;;;4985020;28;20215;-84
2024/01/16 01:51:42;;;;;;;6.25;3.95;;;1.30;99.90;;;;;;4993776;28;20254;-84
2024/01/16 01:54:09;;;;;;;5.72;3.97;;;1.30;99.90;;;;;;4992427;28;20727;-84
2024/01/16 01:56:35;;;;;;;4.63;3.85;;;1.30;99.90;;;;;;4989486;28;20184;-83
2024/01/16 01:59:01;;;;;;;5.93;4.03;;;1.50;99.90;;;;;;4994701;28;20195;-83
2024/01/16 02:01:29;;;;;;;4.65;3.10;;;1.50;99.90;;;;;;4990344;28;20247;-83
2024/01/16 02:03:56;;;;;;;6.65;4.43;;;1.40;99.90;;;;;;4988255;28;20732;-82
2024/01/16 02:06:22;;;;;;;5.28;3.92;;;1.20;99.90;;;;;;4989329;28;20199;-84
2024/01/16 02:08:48;;;;;;;4.97;3.40;;;1.20;99.90;;;;;;4984773;28;20176;-84
2024/01/16 02:11:14;;;;;;;3.90;3.50;;;0.80;99.90;;;;;;4988459;28;20804;-84
2024/01/16 02:13:41;;;;;;;7.25;4.15;;;1.10;99.90;;;;;;4986657;28;20605;-84
2024/01/16 02:16:18;;;;;;;3.83;3.30;;;1.50;99.90;;;;;;4984370;28;20211;-84
2024/01/16 02:18:43;;;;;;;5.72;3.60;;;1.20;99.90;;;;;;4984335;28;20183;-83
2024/01/16 02:21:09;;;;;;;4.80;3.40;;;1.40;99.90;;;;;;4983421;28;20196;-83
2024/01/16 02:23:35;;;;;;;4.27;3.87;;;1.10;99.90;;;;;;4986472;28;20211;-84
2024/01/16 02:26:01;;;;;;;6.10;4.10;;;0.90;99.90;;;;;;4985854;28;20987;-83
2024/01/16 02:28:27;;;;;;;5.55;3.40;;;0.80;99.90;;;;;;4983036;28;20194;-84
2024/01/16 02:30:53;;;;;;;4.68;4.10;;;0.90;99.90;;;;;;4981617;28;20179;-84
2024/01/16 02:33:18;;;;;;;5.50;3.50;;;0.80;99.90;;;;;;4983025;28;20275;-84
2024/01/16 02:35:44;;;;;;;7.43;4.20;;;1.00;99.90;;;;;;4985622;28;20722;-84
2024/01/16 02:38:09;;;;;;;6.13;3.73;;;0.90;99.90;;;;;;4982402;28;20199;-84
2024/01/16 02:40:35;;;;;;;7.27;4.90;;;0.80;99.90;;;;;;4986545;28;20195;-83
2024/01/16 02:43:00;;;;;;;6.13;3.93;;;1.30;99.90;;;;;;4986946;28;20219;-83
2024/01/16 02:45:26;;;;;;;5.00;3.77;;;1.30;99.90;;;;;;4979416;28;20262;-84
2024/01/16 02:47:51;;;;;;;4.67;4.07;;;1.00;99.90;;;;;;4991690;28;20685;-84
2024/01/16 02:50:17;;;;;;;6.50;4.27;;;1.20;99.90;;;;;;4983847;28;20264;-84
2024/01/16 02:52:42;;;;;;;6.83;4.53;;;0.10;99.90;;;;;;4981130;28;20188;-83
2024/01/16 02:55:08;;;;;;;4.50;3.73;;;0.80;99.90;;;;;;4977326;28;20216;-82
2024/01/16 02:57:34;;;;;;;5.15;4.00;;;1.10;99.90;;;;;;4981751;28;20187;-84
2024/01/16 03:00:00;;;;;;;4.00;3.20;;;0.60;99.90;;;;;;4980197;28;20188;-84
2024/01/16 03:02:25;;;;;;;4.63;3.60;;;0.60;99.90;;;;;;4980960;28;20913;-84
2024/01/16 03:04:51;;;;;;;3.77;3.47;;;0.70;99.90;;;;;;4980598;28;20958;-84
2024/01/16 03:07:16;;;;;;;6.10;4.07;;;0.70;99.90;;;;;;4980843;28;20189;-84
2024/01/16 03:09:42;;;;;;;6.90;3.43;;;0.80;99.90;;;;;;4982214;28;20177;-84
2024/01/16 03:12:08;;;;;;;4.87;3.80;;;0.50;99.90;;;;;;4986043;28;20285;-84
2024/01/16 03:14:35;;;;;;;5.57;4.00;;;0.80;99.90;;;;;;4985099;28;20223;-84
2024/01/16 03:17:01;;;;;;;5.57;3.83;;;0.70;99.90;;;;;;4978752;28;20208;-84
2024/01/16 03:19:27;;;;;;;5.30;3.42;;;0.60;99.90;;;;;;4984324;28;20192;-83
2024/01/16 03:21:53;;;;;;;3.90;3.50;;;0.60;99.90;;;;;;4980902;28;20212;-84
2024/01/16 03:24:19;;;;;;;5.57;3.55;;;0.70;99.90;;;;;;4985893;28;20211;-84
2024/01/16 03:26:45;;;;;;;6.13;3.85;;;0.40;99.90;;;;;;4987696;28;20196;-84
2024/01/16 03:29:11;;;;;;;5.03;3.80;;;0.10;99.90;;;;;;4979973;28;20189;-84
2024/01/16 03:31:36;;;;;;;6.30;3.87;;;1.00;99.90;;;;;;4989063;28;20188;-84
2024/01/16 03:34:02;;;;;;;4.50;3.73;;;0.40;99.90;;;;;;4992948;28;20176;-84
2024/01/16 03:36:27;;;;;;;5.77;3.90;;;0.50;99.90;;;;;;4982695;28;20180;-84
2024/01/16 03:38:53;;;;;;;4.57;3.60;;;0.90;99.90;;;;;;4987874;28;20184;-84
2024/01/16 03:41:18;;;;;;;4.47;3.33;;;0.30;99.90;;;;;;4984676;28;20439;-83
2024/01/16 03:43:44;;;;;;;5.97;3.80;;;0.40;99.90;;;;;;4982184;28;20226;-84
2024/01/16 03:46:13;;;;;;;5.40;3.97;;;0.10;99.90;;;;;;4987304;28;20238;-83
2024/01/16 03:48:39;;;;;;;4.55;3.40;;;0.20;99.90;;;;;;4985883;28;20187;-84
2024/01/16 03:51:06;;;;;;;5.72;3.70;;;0.20;99.90;;;;;;4989298;28;20208;-85
2024/01/16 03:53:35;;;;;;;5.72;3.78;;;0.40;99.90;;;;;;4986030;28;20212;-85
2024/01/16 03:56:00;;;;;;;4.53;3.15;;;0.70;99.90;;;;;;4981758;28;20204;-84
2024/01/16 03:58:26;;;;;;;4.57;3.13;;;0.20;99.90;;;;;;4982002;28;20219;-84
2024/01/16 04:00:53;;;;;;;5.50;3.37;;;0.50;99.90;;;;;;4988349;28;20188;-84
2024/01/16 04:03:18;;;;;;;4.30;3.85;;;0.20;99.90;;;;;;4978225;28;20215;-85
2024/01/16 04:05:44;;;;;;;4.07;3.17;;;0.20;99.90;;;;;;4986652;28;20207;-85
2024/01/16 04:08:09;;;;;;;5.60;3.23;;;0.20;99.90;;;;;;4990449;28;20200;-84
2024/01/16 04:10:35;;;;;;;7.80;3.97;;;0.10;99.90;;;;;;4986688;28;20215;-84
2024/01/16 04:13:02;;;;;;;4.73;3.70;;;0.00;99.90;;;;;;4987327;28;20184;-85
2024/01/16 04:15:28;;;;;;;4.60;4.20;;;-0.10;99.90;;;;;;4985079;28;20672;-84
2024/01/16 04:17:54;;;;;;;4.88;3.33;;;0.30;99.90;;;;;;4990668;28;20191;-84
2024/01/16 04:20:19;;;;;;;5.10;3.67;;;-0.20;99.90;;;;;;4988202;28;20188;-85
2024/01/16 04:22:45;;;;;;;5.53;3.83;;;0.40;99.90;;;;;;4987216;28;20224;-86
2024/01/16 04:25:11;;;;;;;4.40;3.50;;;-0.10;99.90;;;;;;4988342;28;20222;-83
2024/01/16 04:27:36;;;;;;;4.90;3.20;;;-0.10;99.90;;;;;;4986985;28;20440;-84
2024/01/16 04:30:02;;;;;;;7.47;4.00;;;0.10;99.90;;;;;;4987905;28;20216;-84
2024/01/16 04:32:28;;;;;;;5.30;4.40;;;0.00;99.90;;;;;;4989831;28;20188;-84
2024/01/16 04:34:54;;;;;;;7.53;3.90;;;-0.10;99.90;;;;;;4990948;28;20201;-85
2024/01/16 04:37:19;;;;;;;6.03;4.10;;;-0.10;99.90;;;;;;4986589;28;20199;-85
2024/01/16 04:39:45;;;;;;;4.80;3.67;;;-0.30;99.90;;;;;;4990739;28;20191;-85
2024/01/16 04:42:11;;;;;;;5.57;4.20;;;-0.10;99.90;;;;;;4984930;28;20298;-85
2024/01/16 04:44:37;;;;;;;4.20;3.40;;;-0.30;99.90;;;;;;4983598;28;20285;-86
2024/01/16 04:47:02;;;;;;;3.67;2.90;;;-0.40;99.90;;;;;;5000110;28;20188;-85
2024/01/16 04:49:28;;;;;;;6.90;4.30;;;-0.70;99.90;;;;;;4989287;28;20601;-86
2024/01/16 04:51:53;;;;;;;4.90;3.50;;;0.10;99.90;;;;;;4986274;28;20184;-86
2024/01/16 04:54:19;;;;;;;4.57;4.00;;;-0.10;99.90;;;;;;4986090;28;20207;-85
2024/01/16 04:56:45;;;;;;;5.50;3.60;;;0.20;99.90;;;;;;4986965;28;20200;-85
2024/01/16 04:59:10;;;;;;;6.33;3.73;;;-0.50;99.90;;;;;;4984687;28;20212;-84
2024/01/16 05:01:36;;;;;;;5.30;3.53;;;-0.80;99.90;;;;;;4989469;28;20962;-86
2024/01/16 05:04:03;;;;;;;3.60;3.30;;;-0.40;99.90;;;;;;4990341;28;20195;-85
2024/01/16 05:06:29;;;;;;;5.82;3.70;;;-0.20;99.90;;;;;;4984807;28;20211;-85
2024/01/16 05:08:55;;;;;;;5.53;3.53;;;0.00;99.90;;;;;;4991871;28;20185;-85
2024/01/16 05:11:20;;;;;;;4.00;3.17;;;-0.20;99.90;;;;;;4986609;28;20243;-85
2024/01/16 05:13:46;;;;;;;8.17;4.17;;;0.00;99.90;;;;;;4983551;28;20235;-85
2024/01/16 05:16:13;;;;;;;4.17;3.53;;;-0.60;99.90;;;;;;4988526;28;20207;-86
2024/01/16 05:18:41;;;;;;;5.65;3.22;;;-0.40;99.90;;;;;;4989126;28;20717;-84
2024/01/16 05:21:07;;;;;;;5.00;3.22;;;-0.50;99.90;;;;;;4993052;28;20623;-86
2024/01/16 05:23:32;;;;;;;3.67;3.00;;;-0.80;99.90;;;;;;4987447;28;20320;-86
2024/01/16 05:25:58;;;;;;;5.67;4.90;;;-0.40;99.90;;;;;;4985783;28;20334;-86
2024/01/16 05:28:24;;;;;;;7.13;4.60;;;-0.60;99.90;;;;;;4989327;28;20176;-85
2024/01/16 05:30:49;;;;;;;4.57;3.90;;;-1.20;99.90;;;;;;4980177;28;20195;-83
2024/01/16 05:33:15;;;;;;;5.30;3.23;;;-0.90;99.90;;;;;;4991501;28;20199;-86
2024/01/16 05:35:41;;;;;;;4.47;3.53;;;-0.90;99.90;;;;;;4985227;28;20204;-84
2024/01/16 05:38:06;;;;;;;4.90;4.03;;;-0.70;99.90;;;;;;4983033;28;20195;-85
2024/01/16 05:40:32;;;;;;;6.87;4.00;;;-0.90;99.90;;;;;;4987982;28;20188;-86
2024/01/16 05:42:58;;;;;;;4.70;3.73;;;-0.80;99.90;;;;;;4982683;28;20208;-86
2024/01/16 05:45:23;;;;;;;4.20;3.27;;;-0.30;99.90;;;;;;4986570;28;20500;-85
2024/01/16 05:47:49;;;;;;;4.80;3.33;;;-0.90;99.90;;;;;;4986956;28;20223;-85
2024/01/16 05:50:18;;;;;;;4.80;3.37;;;-0.70;99.90;;;;;;4980528;28;20200;-87
2024/01/16 05:52:43;;;;;;;5.47;3.80;;;-1.00;99.90;;;;;;4982317;28;20707;-85
2024/01/16 05:55:10;;;;;;;6.90;3.77;;;-1.00;99.90;;;;;;4984496;28;20207;-85
2024/01/16 05:57:35;;;;;;;4.97;3.95;;;-0.40;99.90;;;;;;4987362;28;20473;-85
2024/01/16 06:00:05;;;;;;;4.57;3.47;;;-0.70;99.90;;;;;;4988579;28;20187;-85
2024/01/16 06:02:31;;;;;;;4.10;3.60;;;-1.00;99.90;;;;;;4984727;28;20215;-86
2024/01/16 06:04:57;;;;;;;4.18;3.65;;;-0.70;99.90;;;;;;4983785;28;20211;-86
2024/01/16 06:07:23;;;;;;;4.63;3.40;;;-0.30;99.90;;;;;;4981518;28;20733;-86
2024/01/16 06:09:48;;;;;;;6.93;5.80;;;-0.80;99.90;;;;;;4987073;28;20593;-86
2024/01/16 06:12:14;;;;;;;4.77;3.13;;;-0.70;99.90;;;;;;4987706;28;20279;-85
2024/01/16 06:14:39;;;;;;;3.83;2.93;;;-0.50;99.90;;;;;;4984210;28;20211;-85
2024/01/16 06:17:05;;;;;;;4.40;3.40;;;-0.70;99.90;;;;;;4985532;28;20184;-86
2024/01/16 06:19:32;;;;;;;5.53;3.90;;;-0.60;99.90;;;;;;4991483;28;20204;-85
2024/01/16 06:21:58;;;;;;;6.00;3.83;;;-0.30;99.90;;;;;;4983220;28;20222;-85
2024/01/16 06:24:24;;;;;;;4.88;3.58;;;-0.60;99.90;;;;;;4984981;28;20200;-82
2024/01/16 06:26:50;;;;;;;5.60;3.37;;;-0.40;99.90;;;;;;4978442;28;20199;-82
2024/01/16 06:29:15;;;;;;;5.57;3.63;;;-0.20;99.90;;;;;;4982788;28;20183;-82
2024/01/16 06:31:41;;;;;;;5.73;3.77;;;-1.20;99.90;;;;;;4981650;28;20176;-82
2024/01/16 06:34:06;;;;;;;5.53;3.60;;;-0.70;99.90;;;;;;4981205;28;20231;-82
2024/01/16 06:36:32;;;;;;;7.23;4.23;;;-0.70;99.90;;;;;;4977711;28;20238;-82
2024/01/16 06:38:57;;;;;;;6.10;3.67;;;-0.80;99.90;;;;;;4980408;28;20255;-81
2024/01/16 06:41:23;;;;;;;6.70;4.40;;;-0.40;99.90;;;;;;4943374;28;1066466;-82
2024/01/16 06:43:48;;;;;;;6.17;3.80;;;-0.10;99.90;;;;;;4978376;28;20482;-82
2024/01/16 06:46:14;;;;;;;3.53;3.03;;;-0.40;99.90;;;;;;4985284;28;20188;-81
2024/01/16 06:48:39;;;;;;;6.33;4.90;;;-1.10;99.90;;;;;;4984879;28;20255;-82
2024/01/16 06:51:05;;;;;;;9.10;4.37;;;-0.40;99.90;;;;;;4983799;28;20188;-82
2024/01/16 06:53:31;;;;;;;4.65;3.60;;;-0.60;99.90;;;;;;4981825;28;20250;-83
2024/01/16 06:55:56;;;;;;;9.93;3.93;;;-0.50;99.90;;;;;;4986197;28;20224;-81
2024/01/16 06:58:22;;;;;;;4.67;3.40;;;-0.50;99.90;;;;;;4977384;28;20189;-83
2024/01/16 07:00:48;;;;;;;6.90;3.90;;;-0.60;99.90;;;;;;4983548;28;20192;-86
2024/01/16 07:03:14;;;;;;;5.27;3.70;;;-0.50;99.90;;;;;;4980144;28;20286;-85
2024/01/16 07:05:40;;;;;;;3.95;3.20;;;-0.40;99.90;;;;;;4983750;28;20468;-82
2024/01/16 07:08:06;;;;;;;6.45;3.78;;;-0.20;99.90;;;;;;4977158;28;20180;-83
2024/01/16 07:10:32;;;;;;;4.03;3.50;;;0.30;99.90;;;;;;4986336;28;20176;-81
2024/01/16 07:12:58;;;;;;;5.27;3.50;;;-0.40;99.90;;;;;;4979404;28;20195;-84
2024/01/16 07:15:24;;;;;;;5.57;3.25;;;-0.50;99.90;;;;;;4986309;28;20307;-83
2024/01/16 07:17:49;;;;;;;3.83;3.23;;;-0.50;99.90;;;;;;4980333;28;20283;-84
2024/01/16 07:20:15;;;;;;;6.13;3.80;;;-1.10;99.90;;;;;;4989662;28;20516;-83
2024/01/16 07:22:40;;;;;;;4.33;2.90;;;-0.50;99.90;;;;;;4983664;28;20242;-82
2024/01/16 07:25:06;;;;;;;3.33;3.03;;;0.00;99.90;;;;;;4982978;28;20204;-84
2024/01/16 07:27:32;;;;;;;5.07;3.60;;;-0.40;99.90;;;;;;4983793;28;20785;-82
2024/01/16 07:29:57;;;;;;;6.30;2.90;;;-0.40;99.90;;;;;;4983491;28;20208;-83
2024/01/16 07:32:23;;;;;;;4.07;3.03;;;0.20;99.90;;;;;;4982364;28;20200;-84
2024/01/16 07:34:49;;;;;;;3.47;2.83;;;-0.50;99.90;;;;;;4984884;28;20258;-83
2024/01/16 07:37:15;;;;;;;2.97;2.77;;;-0.40;99.90;;;;;;4986332;28;20939;-82
2024/01/16 07:39:41;;;;;;;4.90;3.13;;;-0.30;99.90;;;;;;4985163;28;20188;-82
2024/01/16 07:42:07;;;;;;;6.00;4.50;;;-0.20;99.90;;;;;;4988352;28;20207;-83
2024/01/16 07:44:33;;;;;;;4.13;3.53;;;-0.40;99.90;;;;;;4985477;28;20462;-83
2024/01/16 07:46:58;;;;;;;5.50;4.03;;;-0.20;99.80;;;;;;4990826;28;20437;-84
2024/01/16 07:49:24;;;;;;;7.63;4.90;;;0.10;99.70;;;;;;4983131;28;20189;-83
2024/01/16 07:51:50;;;;;;;3.30;3.00;;;0.40;99.90;;;;;;4986608;28;20188;-83
2024/01/16 07:54:15;;;;;;;2.87;2.43;;;-0.60;99.90;;;;;;4983326;28;20293;-85
2024/01/16 07:56:41;;;;;;;3.43;2.77;;;0.00;99.90;;;;;;4978061;28;20444;-89
2024/01/16 07:59:07;;;;;;;3.70;3.10;;;0.00;99.80;;;;;;4978502;28;20192;-87
2024/01/16 08:01:32;;;;;;;3.63;3.25;;;0.60;99.70;;;;;;4974568;28;20247;-89
2024/01/16 08:03:58;;;;;;;5.00;3.27;;;0.20;98.80;;;;;;4981616;28;20204;-88
2024/01/16 08:06:24;;;;;;;3.50;2.90;;;0.10;99.30;;;;;;4981139;28;20568;-86
2024/01/16 08:08:50;;;;;;;2.93;2.53;;;0.50;99.50;;;;;;4982439;28;20256;-88
2024/01/16 08:11:16;;;;;;;4.07;3.42;;;0.30;99.60;;;;;;4970869;28;20816;-89
2024/01/16 08:13:42;;;;;;;3.50;3.00;;;0.90;99.50;;;;;;4973724;28;20279;-88
2024/01/16 08:16:08;;;;;;;6.93;3.17;;;0.60;99.20;;;;;;4977967;28;20295;-89
2024/01/16 08:18:34;;;;;;;3.43;3.13;;;0.10;98.70;;;;;;4984537;28;20192;-90
2024/01/16 08:21:01;;;;;;;3.83;3.25;;;1.00;99.00;;;;;;4972904;28;20701;-89
2024/01/16 08:23:26;;;;;;;5.18;3.45;;;0.40;97.30;;;;;;4983142;28;20727;-88
2024/01/16 08:25:52;;;;;;;5.47;3.20;;;0.60;97.20;;;;;;4981553;28;20204;-89
2024/01/16 08:28:18;;;;;;;5.17;3.20;;;0.90;96.80;;;;;;4980335;28;20184;-87
2024/01/16 08:30:44;;;;;;;2.70;2.47;;;0.70;96.70;;;;;;4971452;28;20227;-89
2024/01/16 08:33:11;;;;;;;3.67;2.40;;;1.50;96.40;;;;;;4980455;28;20561;-88
2024/01/16 08:35:37;;;;;;;4.60;3.00;;;1.40;95.90;;;;;;4980907;28;20212;-87
2024/01/16 08:38:03;;;;;;;3.33;2.90;;;0.90;95.40;;;;;;4984966;28;20653;-86
2024/01/16 08:40:30;;;;;;;4.43;3.30;;;1.10;96.00;;;;;;4978120;28;20246;-88
2024/01/16 08:42:55;;;;;;;5.30;3.80;;;1.00;95.80;;;;;;4969304;28;20302;-86
2024/01/16 08:45:21;;;;;;;6.37;3.47;;;1.00;96.30;;;;;;4974061;28;20204;-87
2024/01/16 08:47:49;;;;;;;3.42;3.13;;;0.30;96.00;;;;;;4988172;28;20620;-86
2024/01/16 08:50:15;;;;;;;3.50;2.60;;;1.10;96.70;;;;;;4979993;28;20187;-89
2024/01/16 08:52:40;;;;;;;4.17;3.40;;;1.50;96.30;;;;;;4979340;28;20188;-87
2024/01/16 08:55:06;;;;;;;3.83;3.10;;;0.60;95.70;;;;;;4985446;28;20463;-89
2024/01/16 08:57:32;;;;;;;4.50;3.10;;;1.10;95.40;;;;;;4985064;28;20256;-88
2024/01/16 08:59:57;;;;;;;3.83;2.90;;;1.70;95.60;;;;;;4991934;28;20188;-86
2024/01/16 09:02:24;;;;;;;4.70;2.73;;;1.90;95.00;;;;;;4994562;28;20661;-85
2024/01/16 09:04:50;;;;;;;3.35;3.05;;;1.50;94.30;;;;;;4979453;28;20553;-87
2024/01/16 09:07:16;;;;;;;3.63;2.95;;;1.80;94.90;;;;;;4979690;28;20542;-87
2024/01/16 09:09:42;;;;;;;3.75;2.70;;;1.50;95.10;;;;;;4978110;28;20196;-88
2024/01/16 09:12:08;;;;;;;4.30;2.67;;;1.60;94.60;;;;;;4986429;28;20187;-87
2024/01/16 09:19:48;;;;;;;3.50;2.80;;;;;;;;;;5417219;23;20313;-87
2024/01/16 09:28:11;;;;;;;4.35;2.83;;;;;;;;;;5176934;23;20839;-86
2024/01/16 09:30:37;;;;;;;2.85;2.65;;;;;;;;;;4971438;28;20208;-87
2024/01/16 09:33:06;;;;;;;5.30;2.63;;;1.90;92.60;;;;;;4989156;28;20683;-84
2024/01/16 09:35:32;;;;;;;8.15;2.38;;;2.30;94.00;;;;;;4976009;28;20214;-87
2024/01/16 09:42:17;;;;;;;;;;;;;;;;;;;;;
2024/01/16 09:52:49;;;;;;;4.82;3.05;;;4.40;86.90;;;;;;4712334;30;20386;-87
2024/01/16 09:58:14;;;;;;;3.80;3.08;;;4.30;88.00;;;;;;4949617;29;21039;-83
2024/01/16 10:01:29;;;;;;;4.80;3.10;;;5.10;88.90;;;;;;4951344;28;20662;-90
2024/01/16 10:09:15;;;;;;;4.00;2.55;;;5.30;86.90;;;;;;4951322;29;20904;-89
2024/01/16 10:11:42;;;;;;;3.17;2.65;;;3.90;84.20;;;;;;4946954;28;20182;-90
2024/01/16 10:14:08;;;;;;;5.25;2.70;;;5.40;82.80;;;;;;4962276;28;20240;-89
2024/01/16 10:16:57;;;;;;;7.28;3.45;;;6.50;87.80;;;;;;4949399;29;20635;-88
2024/01/16 10:19:49;;;;;;;5.03;3.00;;;5.50;83.40;;;;;;4950258;29;20185;-87
2024/01/16 10:22:22;;;;;;;16.65;3.53;;;6.40;82.80;;;;;;4951981;28;20225;-89
2024/01/16 10:24:48;;;;;;;10.48;4.05;;;6.10;80.70;;;;;;4947949;29;20215;-89
2024/01/16 10:27:32;;;;;;;6.83;2.43;;;4.50;79.50;;;;;;4948941;29;20180;-89
2024/01/16 10:29:58;;;;;;;4.88;3.22;;;5.10;78.60;;;;;;4962615;28;20449;-90
2024/01/16 10:33:19;;;;;;;4.65;3.15;;;6.90;81.40;;;;;;4962257;28;20189;-91
2024/01/16 10:36:11;;;;;;;2.63;2.42;;;6.50;78.80;;;;;;4913887;28;20213;-90
2024/01/16 10:39:01;;;;;;;;;;;;;;;;;;;;;
2024/01/16 10:41:37;;;;;;;6.93;3.40;;;8.30;80.20;;;;;;4948131;29;20288;-89
2024/01/16 10:46:43;;;;;;;5.25;3.63;;;7.70;75.60;;;;;;4982037;23;20650;-87
2024/01/16 10:50:09;;;;;;;18.10;4.35;;;9.00;75.40;;;;;;4951131;29;20213;-89
2024/01/16 11:03:53;;;;;;;10.30;2.95;;;9.40;64.90;;;;;;5564910;23;20303;-87
2024/01/16 11:06:34;;;;;;;2.75;2.40;;;11.00;70.50;;;;;;4967696;28;20181;-88
2024/01/16 11:12:30;;;;;;;5.13;2.30;;;8.30;62.60;;;;;;4964944;28;20208;-88
2024/01/16 12:42:29;;;;;;;2.95;2.10;;;6.80;69.10;;;;;;5066746;23;20638;-88
2024/01/16 12:47:30;;;;;;;2.05;1.85;;;6.70;68.40;;;;;;5004119;23;20475;-88
2024/01/16 12:57:05;;;;;;;3.70;2.35;;;5.60;68.90;;;;;;4980074;28;20727;-88
2024/01/16 13:06:23;;;;;;;7.70;5.28;;;4.80;71.50;;;;;;6094955;23;20229;-87
2024/01/16 13:09:03;;;;;;;2.13;1.90;;;4.70;69.50;;;;;;4987378;28;20206;-87
2024/01/16 13:14:38;;;;;;;3.47;1.92;;;;;;;;;;4960029;28;20715;-88
2024/01/16 13:17:06;;;;;;;2.55;2.00;;;;;;;;;;4968392;28;20194;-87
2024/01/16 13:19:33;;;;;;;6.43;3.30;;;;;;;;;;4970149;28;20190;-87
2024/01/16 13:22:03;;;;;;;2.90;2.70;;;;;;;;;;4969912;28;20250;-88
2024/01/16 13:27:45;;;;;;;3.03;2.15;;;5.00;74.20;;;;;;4931186;29;20702;-87
2024/01/16 13:33:46;;;;;;;6.88;3.38;;;;;;;;;;4953527;28;20186;-88
2024/01/16 13:36:32;;;;;;;3.83;2.17;;;4.40;71.30;;;;;;4967351;28;20213;-88
2024/01/16 13:42:29;;;;;;;2.20;1.80;;;5.70;76.50;;;;;;4941705;28;20226;-89
2024/01/16 13:52:28;;;;;;;1.75;1.65;;;4.30;72.10;;;;;;4813914;29;20214;-88
2024/01/16 13:57:49;;;;;;;6.95;2.30;;;4.50;71.60;;;;;;5081053;23;20246;-89
2024/01/16 14:00:17;;;;;;;2.00;1.70;;;5.30;74.40;;;;;;4933288;28;20214;-86
2024/01/16 14:02:59;;;;;;;4.18;2.30;;;5.30;75.20;;;;;;4932612;29;20212;-89
2024/01/16 14:06:21;;;;;;;;;;;;;;;;;;;;;
2024/01/16 14:09:25;;;;;;;5.05;2.60;;;4.60;76.00;;;;;;4934825;29;20622;-89
2024/01/16 14:15:23;;;;;;;3.60;2.20;;;4.30;74.20;;;;;;4891905;29;20228;-87
2024/01/16 14:17:54;;;;;;;4.17;2.50;;;2.90;74.00;;;;;;4934544;29;20772;-87
2024/01/16 14:20:48;;;;;;;2.63;1.90;;;3.90;73.80;;;;;;4946195;28;20459;-87
2024/01/16 14:23:14;;;;;;;2.28;2.00;;;;;;;;;;4946886;28;20238;-86
2024/01/16 14:26:07;;;;;;;5.18;2.30;;;3.80;74.00;;;;;;4954344;28;20261;-87
2024/01/16 14:28:33;;;;;;;3.20;2.90;;;4.40;79.40;;;;;;4954626;28;20187;-89
2024/01/16 14:31:00;;;;;;;2.37;1.87;;;;;;;;;;4934873;29;20205;-86
2024/01/16 14:33:25;;;;;;;3.08;2.00;;;3.80;73.40;;;;;;4937838;28;20534;-86
2024/01/16 14:35:51;;;;;;;8.20;2.60;;;;;;;;;;4935900;29;20214;-85
2024/01/16 14:41:47;;;;;;;2.53;2.05;;;3.90;73.90;;;;;;4907358;29;20239;-87
2024/01/16 14:52:33;;;;;;;4.60;2.40;;;3.80;79.00;;;;;;5557396;23;20244;-84
2024/01/16 15:01:26;;;;;;;2.97;2.30;;;4.00;81.70;;;;;;4978053;28;20229;-86
2024/01/16 15:49:06;;;;;;;5.45;2.95;;;;;;;;;;5832495;23;20504;-89
2024/01/16 15:51:32;;;;;;;5.65;4.20;;;2.30;83.80;;;;;;4962215;28;20221;-89
2024/01/16 15:59:52;;;;;;;4.75;3.63;;;0.70;88.10;;;;;;4978376;28;20243;-92
2024/01/16 16:02:25;;;;;;;7.25;4.28;;;2.50;90.60;;;;;;4985621;28;20483;-90
2024/01/16 16:04:51;;;;;;;7.03;3.42;;;;;;;;;;4981153;28;20460;-90
2024/01/16 16:07:17;;;;;;;3.67;3.10;;;1.70;91.60;;;;;;4968429;28;20183;-88
2024/01/16 16:09:43;;;;;;;7.40;4.07;;;;;;;;;;4975223;28;20741;-91
2024/01/16 16:12:13;;;;;;;5.30;4.00;;;1.40;92.30;;;;;;4976569;28;20459;-92
2024/01/16 16:14:40;;;;;;;8.35;5.30;;;1.20;93.30;;;;;;4961700;28;20352;-92
2024/01/16 16:17:08;;;;;;;7.30;4.05;;;2.70;94.70;;;;;;4964109;28;20226;-92
2024/01/16 16:19:34;;;;;;;5.53;3.95;;;;;;;;;;4965980;28;20689;-91
2024/01/16 16:22:00;;;;;;;6.70;4.70;;;;;;;;;;4968392;28;20572;-90
2024/01/16 16:24:26;;;;;;;6.93;4.47;;;;;;;;;;4966232;28;20215;-89
2024/01/16 16:26:53;;;;;;;6.65;5.13;;;1.00;94.10;;;;;;4965097;28;20192;-91
2024/01/16 16:29:19;;;;;;;14.85;4.95;;;0.60;94.70;;;;;;4962502;28;20193;-91
2024/01/16 16:31:45;;;;;;;5.70;3.73;;;;;;;;;;4967291;28;20189;-91
2024/01/16 16:43:04;;;;;;;6.75;4.68;;;;;;;;;;5058641;23;20239;-90
2024/01/16 16:45:30;;;;;;;7.88;5.30;;;;;;;;;;4978476;28;20578;-90
2024/01/16 16:47:56;;;;;;;13.35;5.20;;;0.80;95.30;;;;;;4972166;28;20227;-90
2024/01/16 16:50:23;;;;;;;5.88;4.75;;;0.80;95.60;;;;;;4980000;28;20184;-91
2024/01/16 16:52:49;;;;;;;5.65;4.45;;;0.70;96.20;;;;;;4973878;28;20212;-87
2024/01/16 16:55:14;;;;;;;6.63;5.00;;;0.80;96.50;;;;;;4974022;28;20259;-89
2024/01/16 16:57:40;;;;;;;8.30;4.83;;;0.90;96.50;;;;;;4958994;28;20216;-90
2024/01/16 17:00:07;;;;;;;7.27;4.00;;;0.20;96.40;;;;;;4976358;28;20307;-88
2024/01/16 17:02:34;;;;;;;5.30;4.15;;;0.50;96.70;;;;;;4988239;28;20284;-89
2024/01/16 17:04:59;;;;;;;8.95;5.05;;;0.40;96.80;;;;;;4983055;28;20720;-88
2024/01/16 17:07:25;;;;;;;8.70;4.50;;;0.90;97.80;;;;;;4972360;28;20200;-88
2024/01/16 17:09:51;;;;;;;6.80;4.60;;;0.80;98.50;;;;;;4970339;28;20226;-88
2024/01/16 17:12:16;;;;;;;6.60;5.03;;;0.30;98.10;;;;;;4966751;28;20234;-88
2024/01/16 17:14:42;;;;;;;8.13;4.87;;;0.30;98.20;;;;;;4968360;28;20463;-88
2024/01/16 17:17:07;;;;;;;7.90;4.53;;;0.80;98.60;;;;;;4969652;28;20208;-88
2024/01/16 17:19:33;;;;;;;7.87;4.40;;;0.40;98.50;;;;;;4971106;28;20188;-89
2024/01/16 17:21:58;;;;;;;8.63;5.67;;;-0.10;98.50;;;;;;4973886;28;20658;-88
2024/01/16 17:24:24;;;;;;;8.80;5.40;;;0.00;98.70;;;;;;4972575;28;20287;-88